createdAt,value
2018-09-09T00:00:20.388Z,1619.67
2018-09-09T00:02:48.403Z,1707.33
2018-09-09T00:05:16.431Z,1737.03
2018-09-09T00:07:44.447Z,1908.17
2018-09-09T00:10:12.495Z,1937.07
2018-09-09T00:12:40.511Z,1876.27
2018-09-09T00:15:08.547Z,1882.77
2018-09-09T00:17:36.562Z,1746.13
2018-09-09T00:20:04.855Z,1910.40
2018-09-09T00:22:32.884Z,1905.73
2018-09-09T00:25:00.911Z,1818.03
2018-09-09T00:27:28.931Z,1922.20
2018-09-09T00:29:56.963Z,1949.37
2018-09-09T00:32:24.999Z,1876.07
2018-09-09T00:34:53.082Z,1926.77
2018-09-09T00:37:21.099Z,1916.83
2018-09-09T00:39:49.139Z,1881.97
2018-09-09T00:42:17.190Z,1830.60
2018-09-09T00:44:45.231Z,1800.93
2018-09-09T00:47:13.259Z,1915.87
2018-09-09T00:49:46.843Z,1883.03
2018-09-09T00:52:20.328Z,1704.87
2018-09-09T00:54:48.405Z,1455.60
2018-09-09T00:57:16.419Z,1591.93
2018-09-09T00:59:44.511Z,1672.13
2018-09-09T01:02:12.823Z,1857.17
2018-09-09T01:04:40.863Z,1938.33
2018-09-09T01:07:08.882Z,1783.77
2018-09-09T01:09:36.911Z,1665.17
2018-09-09T01:12:05.099Z,1791.43
2018-09-09T01:14:33.996Z,1932.37
2018-09-09T01:17:02.007Z,1883.17
2018-09-09T01:19:30.041Z,1896.63
2018-09-09T01:21:58.047Z,1977.97
2018-09-09T01:24:26.075Z,1950.67
2018-09-09T01:26:54.490Z,1976.97
2018-09-09T01:29:22.707Z,1999.90
2018-09-09T01:31:50.712Z,1999.90
2018-09-09T01:34:18.732Z,1974.47
2018-09-09T01:36:46.746Z,1926.30
2018-09-09T01:39:14.771Z,1959.37
2018-09-09T01:41:42.804Z,1998.33
2018-09-09T01:44:10.806Z,1999.90
2018-09-09T01:46:38.814Z,1999.90
2018-09-09T01:49:06.820Z,1999.90
2018-09-09T01:51:34.837Z,1999.90
2018-09-09T01:54:02.838Z,1999.90
2018-09-09T01:56:30.851Z,1999.90
2018-09-09T01:58:58.844Z,1999.90
2018-09-09T02:01:26.868Z,1999.90
2018-09-09T02:03:54.879Z,1978.93
2018-09-09T02:06:22.883Z,1977.23
2018-09-09T02:08:50.895Z,1998.87
2018-09-09T02:11:18.912Z,1962.43
2018-09-09T02:13:46.931Z,1954.73
2018-09-09T02:16:14.935Z,1907.13
2018-09-09T02:18:42.929Z,1991.27
2018-09-09T02:21:10.939Z,1989.73
2018-09-09T02:23:38.934Z,1905.60
2018-09-09T02:26:06.975Z,1982.67
2018-09-09T02:28:34.975Z,1913.17
2018-09-09T02:31:02.976Z,1747.90
2018-09-09T02:33:30.982Z,1534.57
2018-09-09T02:35:58.996Z,1426.20
2018-09-09T02:41:09.606Z,1224.37
2018-09-09T02:43:37.644Z,1303.43
2018-09-09T02:46:05.600Z,1420.53
2018-09-09T02:48:33.591Z,1309.13
2018-09-09T02:51:01.770Z,1423.57
2018-09-09T02:53:29.764Z,1631.53
2018-09-09T02:55:57.759Z,1759.57
2018-09-09T02:58:25.775Z,1417.60
2018-09-09T03:00:53.772Z,1438.33
2018-09-09T03:03:21.771Z,1304.83
2018-09-09T03:05:49.810Z,1272.37
2018-09-09T03:08:17.823Z,1156.37
2018-09-09T03:10:45.832Z,1120.70
2018-09-09T03:13:13.836Z,1115.97
2018-09-09T03:15:41.840Z,1357.43
2018-09-09T03:18:09.830Z,1278.43
2018-09-09T03:20:38.661Z,1217.50
2018-09-09T03:23:06.643Z,1172.60
2018-09-09T03:25:34.643Z,933.60
2018-09-09T03:28:02.638Z,916.97
2018-09-09T03:30:30.675Z,970.23
2018-09-09T03:32:58.663Z,879.00
2018-09-09T03:35:27.162Z,795.33
2018-09-09T03:37:55.159Z,795.70
2018-09-09T03:40:23.159Z,767.63
2018-09-09T03:42:51.160Z,716.00
2018-09-09T03:45:19.161Z,821.77
2018-09-09T03:47:47.155Z,663.47
2018-09-09T03:50:15.159Z,584.03
2018-09-09T03:52:45.331Z,764.07
2018-09-09T03:55:13.331Z,687.23
2018-09-09T03:57:41.336Z,713.77
2018-09-09T04:00:09.332Z,583.33
2018-09-09T04:02:37.358Z,571.80
2018-09-09T04:05:05.450Z,628.53
2018-09-09T04:07:33.455Z,718.37
2018-09-09T04:10:01.541Z,800.37
2018-09-09T04:12:29.494Z,844.20
2018-09-09T04:14:57.484Z,870.00
2018-09-09T04:17:25.495Z,871.27
2018-09-09T04:19:53.499Z,608.57
2018-09-09T04:22:21.523Z,486.13
2018-09-09T04:24:49.515Z,426.87
2018-09-09T04:27:17.523Z,440.43
2018-09-09T04:29:45.516Z,383.03
2018-09-09T04:32:13.520Z,523.50
2018-09-09T04:34:41.527Z,402.07
2018-09-09T04:37:09.523Z,411.83
2018-09-09T04:39:37.524Z,480.10
2018-09-09T04:42:05.526Z,477.10
2018-09-09T04:44:33.507Z,465.50
2018-09-09T04:47:01.499Z,233.73
2018-09-09T04:49:29.490Z,147.20
2018-09-09T04:51:57.504Z,108.47
2018-09-09T04:54:25.499Z,377.27
2018-09-09T04:56:53.543Z,347.33
2018-09-09T04:59:21.534Z,284.10
2018-09-09T05:01:49.530Z,151.93
2018-09-09T05:04:17.514Z,95.37
2018-09-09T05:06:45.579Z,62.00
2018-09-09T05:09:13.587Z,146.87
2018-09-09T05:11:41.611Z,201.50
2018-09-09T05:14:09.608Z,252.47
2018-09-09T05:16:37.606Z,318.47
2018-09-09T05:19:05.826Z,323.33
2018-09-09T05:21:33.832Z,345.77
2018-09-09T05:24:01.840Z,514.53
2018-09-09T05:26:29.834Z,923.73
2018-09-09T05:28:57.823Z,893.20
2018-09-09T05:31:25.843Z,818.30
2018-09-09T05:33:53.846Z,1332.20
2018-09-09T05:36:21.848Z,981.20
2018-09-09T05:38:49.844Z,1026.50
2018-09-09T05:41:17.842Z,943.70
2018-09-09T05:43:45.843Z,866.20
2018-09-09T05:46:13.847Z,1012.90
2018-09-09T05:48:41.842Z,1174.50
2018-09-09T05:51:10.020Z,1860.50
2018-09-09T05:53:38.019Z,1999.90
2018-09-09T05:56:06.023Z,1999.90
2018-09-09T05:58:34.040Z,1999.90
2018-09-09T06:01:02.120Z,1999.90
2018-09-09T06:03:30.127Z,1931.17
2018-09-09T06:05:58.151Z,997.07
2018-09-09T06:08:26.168Z,1290.67
2018-09-09T06:10:55.327Z,1996.90
2018-09-09T06:13:24.767Z,1911.30
2018-09-09T06:15:52.775Z,1999.90
2018-09-09T06:18:20.781Z,967.63
2018-09-09T06:20:48.870Z,637.13
2018-09-09T06:23:16.875Z,128.40
2018-09-09T06:25:45.391Z,750.07
2018-09-09T06:28:13.423Z,1562.53
2018-09-09T06:30:41.462Z,649.17
2018-09-09T06:33:09.488Z,83.57
2018-09-09T06:35:37.623Z,293.50
2018-09-09T06:38:05.631Z,804.30
2018-09-09T06:40:33.700Z,91.13
2018-09-09T06:43:01.815Z,25.00
2018-09-09T06:45:29.853Z,26.20
2018-09-09T06:47:57.950Z,29.87
2018-09-09T06:50:26.223Z,58.47
2018-09-09T06:52:54.307Z,23.13
2018-09-09T06:55:22.448Z,23.57
2018-09-09T06:57:50.494Z,22.70
2018-09-09T07:00:18.583Z,20.77
2018-09-09T07:02:46.622Z,29.03
2018-09-09T07:05:14.634Z,22.07
2018-09-09T07:07:42.639Z,25.20
2018-09-09T07:10:10.716Z,22.20
2018-09-09T07:12:38.777Z,23.10
2018-09-09T07:15:06.771Z,22.30
2018-09-09T07:17:34.773Z,22.10
2018-09-09T07:20:02.759Z,23.47
2018-09-09T07:22:30.779Z,22.20
2018-09-09T07:24:58.788Z,24.10
2018-09-09T07:27:26.802Z,21.83
2018-09-09T07:29:54.792Z,23.27
2018-09-09T07:32:22.798Z,26.70
2018-09-09T07:34:50.784Z,26.93
2018-09-09T07:37:19.561Z,25.23
2018-09-09T07:39:47.578Z,26.90
2018-09-09T07:42:15.588Z,24.43
2018-09-09T07:44:44.284Z,27.97
2018-09-09T07:47:12.280Z,27.83
2018-09-09T07:49:40.547Z,26.53
2018-09-09T07:52:08.594Z,26.13
2018-09-09T07:54:36.611Z,24.93
2018-09-09T07:57:04.712Z,29.90
2018-09-09T07:59:32.707Z,27.90
2018-09-09T08:02:00.712Z,31.63
2018-09-09T08:04:28.710Z,29.47
2018-09-09T08:06:56.699Z,25.83
2018-09-09T08:09:24.707Z,27.17
2018-09-09T08:11:52.678Z,29.00
2018-09-09T08:14:20.671Z,26.43
2018-09-09T08:16:48.647Z,25.40
2018-09-09T08:19:16.643Z,27.50
2018-09-09T08:21:44.619Z,26.07
2018-09-09T08:24:12.632Z,29.23
2018-09-09T08:26:40.634Z,28.10
2018-09-09T08:29:08.623Z,26.13
2018-09-09T08:31:36.607Z,29.70
2018-09-09T08:34:04.659Z,29.93
2018-09-09T08:36:32.646Z,27.53
2018-09-09T08:39:00.827Z,27.50
2018-09-09T08:41:28.835Z,28.70
2018-09-09T08:43:56.828Z,30.20
2018-09-09T08:46:24.815Z,26.57
2018-09-09T08:48:52.811Z,25.50
2018-09-09T08:51:21.583Z,27.53
2018-09-09T08:53:50.655Z,27.10
2018-09-09T08:56:18.893Z,27.50
2018-09-09T08:58:47.147Z,26.60
2018-09-09T09:01:15.157Z,28.37
2018-09-09T09:03:43.222Z,29.10
2018-09-09T09:06:11.224Z,28.50
2018-09-09T09:08:39.239Z,31.43
2018-09-09T09:11:07.232Z,27.67
2018-09-09T09:13:35.243Z,29.93
2018-09-09T09:16:03.239Z,30.03
2018-09-09T09:18:31.256Z,29.20
2018-09-09T09:20:59.246Z,29.33
2018-09-09T09:23:27.333Z,29.40
2018-09-09T09:25:55.415Z,28.37
2018-09-09T09:28:23.995Z,30.33
2018-09-09T09:30:55.387Z,29.27
2018-09-09T09:33:27.670Z,31.97
2018-09-09T09:35:55.754Z,29.23
2018-09-09T09:38:25.238Z,29.03
2018-09-09T09:40:53.446Z,32.00
2018-09-09T09:43:21.357Z,29.53
2018-09-09T09:45:50.175Z,32.33
2018-09-09T09:48:18.716Z,31.17
2018-09-09T09:50:46.706Z,30.27
2018-09-09T09:53:14.775Z,35.37
2018-09-09T09:55:42.698Z,32.50
2018-09-09T09:58:10.683Z,30.40
2018-09-09T10:00:48.535Z,29.57
2018-09-09T10:03:16.787Z,29.13
2018-09-09T10:05:44.775Z,32.03
2018-09-09T10:08:12.767Z,30.80
2018-09-09T10:10:40.755Z,30.40
2018-09-09T10:13:08.739Z,29.17
2018-09-09T10:15:36.736Z,39.50
2018-09-09T10:18:11.063Z,32.13
2018-09-09T10:20:39.091Z,30.23
2018-09-09T10:23:07.090Z,30.50
2018-09-09T10:25:35.178Z,30.40
2018-09-09T10:28:03.171Z,29.40
2018-09-09T10:30:31.176Z,29.70
2018-09-09T10:32:59.229Z,29.80
2018-09-09T10:35:27.259Z,31.17
2018-09-09T10:37:55.343Z,32.20
2018-09-09T10:40:23.543Z,29.87
2018-09-09T10:42:51.579Z,33.20
2018-09-09T10:45:19.617Z,33.43
2018-09-09T10:47:47.635Z,32.00
2018-09-09T10:50:15.663Z,30.40
2018-09-09T10:52:43.707Z,32.83
2018-09-09T10:55:11.711Z,29.73
2018-09-09T10:57:39.699Z,30.00
2018-09-09T11:00:07.810Z,31.90
2018-09-09T11:02:35.799Z,31.20
2018-09-09T11:05:03.821Z,32.00
2018-09-09T11:07:31.836Z,32.47
2018-09-09T11:09:59.844Z,30.03
2018-09-09T11:12:29.673Z,30.00
2018-09-09T11:14:58.875Z,31.57
2018-09-09T11:17:27.183Z,30.00
2018-09-09T11:19:55.592Z,30.43
2018-09-09T11:22:23.591Z,32.43
2018-09-09T11:24:51.623Z,28.70
2018-09-09T11:27:19.655Z,30.00
2018-09-09T11:29:47.686Z,34.03
2018-09-09T11:32:15.731Z,33.47
2018-09-09T11:34:43.960Z,31.03
2018-09-09T11:37:12.258Z,30.67
2018-09-09T11:39:40.359Z,29.83
2018-09-09T11:42:08.407Z,30.27
2018-09-09T11:44:36.411Z,30.67
2018-09-09T11:47:04.406Z,29.13
2018-09-09T11:49:32.404Z,29.10
2018-09-09T11:52:00.402Z,32.97
2018-09-09T11:54:28.425Z,32.20
2018-09-09T11:56:56.402Z,29.70
2018-09-09T11:59:24.520Z,28.73
2018-09-09T12:01:52.557Z,33.30
2018-09-09T12:04:20.507Z,29.17
2018-09-09T12:06:48.495Z,31.70
2018-09-09T12:09:16.498Z,33.17
2018-09-09T12:11:44.492Z,30.57
2018-09-09T12:14:12.479Z,28.93
2018-09-09T12:16:41.655Z,29.20
2018-09-09T12:19:15.201Z,28.73
2018-09-09T12:21:43.536Z,28.10
2018-09-09T12:24:11.560Z,30.37
2018-09-09T12:26:39.675Z,28.43
2018-09-09T12:29:07.675Z,29.80
2018-09-09T12:31:35.682Z,28.77
2018-09-09T12:34:03.671Z,33.87
2018-09-09T12:36:31.672Z,30.27
2018-09-09T12:38:59.667Z,29.43
2018-09-09T12:41:27.662Z,34.20
2018-09-09T12:44:01.063Z,30.13
2018-09-09T12:46:34.544Z,30.80
2018-09-09T12:49:04.443Z,32.33
2018-09-09T12:51:32.524Z,31.00
2018-09-09T12:54:00.587Z,30.53
2018-09-09T12:56:28.594Z,31.50
2018-09-09T12:58:57.022Z,31.10
2018-09-09T13:01:25.024Z,32.13
2018-09-09T13:03:53.007Z,34.13
2018-09-09T13:06:21.003Z,33.60
2018-09-09T13:08:49.006Z,30.00
2018-09-09T13:11:17.049Z,30.93
2018-09-09T13:13:45.066Z,30.73
2018-09-09T13:16:13.070Z,30.40
2018-09-09T13:18:41.106Z,32.83
2018-09-09T13:21:09.143Z,32.07
2018-09-09T13:23:37.143Z,30.53
2018-09-09T13:26:05.227Z,30.33
2018-09-09T13:28:33.228Z,31.40
2018-09-09T13:31:01.347Z,31.00
2018-09-09T13:33:29.352Z,33.27
2018-09-09T13:35:57.351Z,29.90
2018-09-09T13:38:25.370Z,31.03
2018-09-09T13:40:53.376Z,31.13
2018-09-09T13:43:21.387Z,32.80
2018-09-09T13:45:49.386Z,28.70
2018-09-09T13:48:17.463Z,30.80
2018-09-09T13:50:45.395Z,30.83
2018-09-09T13:53:13.571Z,32.30
2018-09-09T13:55:41.923Z,33.13
2018-09-09T13:58:09.970Z,31.70
2018-09-09T14:00:37.932Z,29.50
2018-09-09T14:03:05.945Z,40.13
2018-09-09T14:05:33.999Z,33.03
2018-09-09T14:08:02.003Z,36.60
2018-09-09T14:10:30.031Z,30.97
2018-09-09T14:12:58.054Z,31.50
2018-09-09T14:15:26.229Z,31.50
2018-09-09T14:17:54.219Z,34.43
2018-09-09T14:20:22.267Z,29.93
2018-09-09T14:22:50.259Z,32.70
2018-09-09T14:25:18.285Z,32.90
2018-09-09T14:27:46.315Z,36.13
2018-09-09T14:30:14.409Z,30.10
2018-09-09T14:32:42.534Z,34.40
2018-09-09T14:35:10.536Z,29.83
2018-09-09T14:37:38.543Z,30.93
2018-09-09T14:40:07.666Z,30.77
2018-09-09T14:42:35.691Z,29.07
2018-09-09T14:45:03.700Z,30.20
2018-09-09T14:47:31.933Z,38.70
2018-09-09T14:49:59.939Z,33.40
2018-09-09T14:52:27.944Z,30.83
2018-09-09T14:54:55.947Z,31.37
2018-09-09T14:57:24.184Z,30.03
2018-09-09T14:59:52.266Z,34.43
2018-09-09T15:02:20.272Z,30.07
2018-09-09T15:04:48.287Z,33.13
2018-09-09T15:07:16.315Z,34.80
2018-09-09T15:09:44.315Z,32.40
2018-09-09T15:12:12.387Z,31.90
2018-09-09T15:14:40.385Z,29.90
2018-09-09T15:17:08.663Z,29.50
2018-09-09T15:19:37.386Z,31.57
2018-09-09T15:22:05.416Z,28.90
2018-09-09T15:24:33.506Z,29.40
2018-09-09T15:27:01.616Z,29.30
2018-09-09T15:29:29.647Z,31.10
2018-09-09T15:31:57.764Z,32.13
2018-09-09T15:34:25.804Z,32.17
2018-09-09T15:36:54.255Z,31.73
2018-09-09T15:39:22.263Z,32.73
2018-09-09T15:41:50.300Z,30.63
2018-09-09T15:44:18.527Z,29.23
2018-09-09T15:46:48.926Z,31.50
2018-09-09T15:49:17.047Z,28.23
2018-09-09T15:51:45.186Z,30.33
2018-09-09T15:54:13.127Z,32.73
2018-09-09T15:56:41.128Z,29.80
2018-09-09T15:59:09.124Z,30.90
2018-09-09T16:01:37.140Z,30.57
2018-09-09T16:04:05.135Z,30.77
2018-09-09T16:06:33.139Z,28.90
2018-09-09T16:09:01.152Z,29.27
2018-09-09T16:11:29.142Z,31.00
2018-09-09T16:13:57.192Z,31.97
2018-09-09T16:16:26.230Z,29.80
2018-09-09T16:18:54.568Z,37.97
2018-09-09T16:21:23.110Z,29.93
2018-09-09T16:23:51.196Z,33.53
2018-09-09T16:26:19.188Z,30.00
2018-09-09T16:28:47.267Z,30.07
2018-09-09T16:31:15.263Z,28.60
2018-09-09T16:33:43.247Z,30.17
2018-09-09T16:36:11.245Z,30.30
2018-09-09T16:38:39.227Z,28.90
2018-09-09T16:41:07.452Z,31.90
2018-09-09T16:43:35.458Z,29.20
2018-09-09T16:46:03.559Z,29.83
2018-09-09T16:48:31.801Z,30.20
2018-09-09T16:50:59.910Z,32.43
2018-09-09T16:53:28.017Z,30.40
2018-09-09T16:55:56.177Z,33.90
2018-09-09T16:58:24.171Z,28.43
2018-09-09T17:00:52.259Z,29.03
2018-09-09T17:03:21.043Z,28.60
2018-09-09T17:05:49.139Z,33.50
2018-09-09T17:08:17.147Z,35.33
2018-09-09T17:10:45.171Z,26.90
2018-09-09T17:13:13.187Z,28.00
2018-09-09T17:15:41.199Z,32.30
2018-09-09T17:18:09.271Z,28.57
2018-09-09T17:20:37.347Z,26.23
2018-09-09T17:23:05.388Z,27.83
2018-09-09T17:25:33.411Z,24.50
2018-09-09T17:28:01.564Z,24.40
2018-09-09T17:30:29.728Z,26.53
2018-09-09T17:32:57.723Z,23.87
2018-09-09T17:35:25.729Z,27.10
2018-09-09T17:37:53.730Z,26.87
2018-09-09T17:40:21.730Z,27.00
2018-09-09T17:42:49.726Z,25.13
2018-09-09T17:45:17.714Z,25.03
2018-09-09T17:47:45.716Z,27.60
2018-09-09T17:50:13.703Z,25.57
2018-09-09T17:52:41.716Z,28.83
2018-09-09T17:55:09.747Z,34.83
2018-09-09T17:57:37.755Z,39.37
2018-09-09T18:00:09.228Z,35.53
2018-09-09T18:02:37.257Z,26.83
2018-09-09T18:05:05.252Z,29.27
2018-09-09T18:07:33.269Z,25.23
2018-09-09T18:10:01.256Z,26.30
2018-09-09T18:12:29.255Z,27.60
2018-09-09T18:14:57.257Z,32.77
2018-09-09T18:17:25.349Z,30.20
2018-09-09T18:19:53.264Z,34.17
2018-09-09T18:22:21.339Z,74.47
2018-09-09T18:24:49.363Z,257.77
2018-09-09T18:27:17.487Z,262.63
2018-09-09T18:29:45.510Z,169.47
2018-09-09T18:32:13.503Z,304.50
2018-09-09T18:34:41.498Z,503.10
2018-09-09T18:37:09.534Z,701.80
2018-09-09T18:39:37.563Z,672.70
2018-09-09T18:42:05.575Z,529.80
2018-09-09T18:44:33.574Z,546.23
2018-09-09T18:47:11.295Z,741.43
2018-09-09T18:49:49.987Z,541.47
2018-09-09T18:52:26.644Z,544.13
2018-09-09T18:55:02.168Z,508.27
2018-09-09T18:57:31.299Z,561.30
2018-09-09T18:59:59.383Z,556.43
2018-09-09T19:02:27.349Z,702.00
2018-09-09T19:04:55.355Z,462.07
2018-09-09T19:07:23.376Z,230.67
2018-09-09T19:09:51.391Z,278.33
2018-09-09T19:12:19.779Z,308.30
2018-09-09T19:14:48.417Z,285.50
2018-09-09T19:17:16.495Z,251.40
2018-09-09T19:19:44.548Z,268.43
2018-09-09T19:22:12.564Z,232.83
2018-09-09T19:24:40.651Z,247.57
2018-09-09T19:27:08.650Z,244.33
2018-09-09T19:29:36.648Z,337.57
2018-09-09T19:32:04.646Z,387.00
2018-09-09T19:34:32.650Z,403.90
2018-09-09T19:37:00.651Z,392.00
2018-09-09T19:39:28.659Z,468.73
2018-09-09T19:41:56.651Z,666.37
2018-09-09T19:44:24.736Z,722.97
2018-09-09T19:46:52.735Z,790.43
2018-09-09T19:49:20.823Z,680.37
2018-09-09T19:51:48.863Z,611.33
2018-09-09T19:54:16.859Z,617.97
2018-09-09T19:56:44.834Z,585.10
2018-09-09T19:59:12.903Z,606.20
2018-09-09T20:01:40.895Z,375.57
2018-09-09T20:04:08.965Z,350.70
2018-09-09T20:06:36.967Z,273.87
2018-09-09T20:09:06.519Z,219.30
2018-09-09T20:11:34.618Z,387.90
2018-09-09T20:14:02.618Z,248.53
2018-09-09T20:16:30.691Z,235.43
2018-09-09T20:18:58.805Z,234.93
2018-09-09T20:21:26.813Z,313.80
2018-09-09T20:23:54.879Z,311.43
2018-09-09T20:26:22.969Z,297.80
2018-09-09T20:28:51.029Z,228.60
2018-09-09T20:31:19.067Z,237.47
2018-09-09T20:33:47.188Z,351.93
2018-09-09T20:36:15.196Z,411.73
2018-09-09T20:38:43.220Z,434.93
2018-09-09T20:41:11.207Z,474.47
2018-09-09T20:43:39.208Z,447.57
2018-09-09T20:46:07.191Z,370.33
2018-09-09T20:48:35.283Z,321.03
2018-09-09T20:51:03.266Z,464.67
2018-09-09T20:53:31.295Z,587.77
2018-09-09T20:55:59.509Z,571.80
2018-09-09T20:58:27.517Z,567.23
2018-09-09T21:00:55.515Z,565.20
2018-09-09T21:03:23.544Z,771.13
2018-09-09T21:05:51.680Z,792.63
2018-09-09T21:08:19.742Z,844.73
2018-09-09T21:10:47.765Z,588.97
2018-09-09T21:13:15.949Z,454.33
2018-09-09T21:15:43.973Z,412.83
2018-09-09T21:18:12.035Z,447.30
2018-09-09T21:20:40.053Z,817.47
2018-09-09T21:23:08.067Z,612.67
2018-09-09T21:25:36.084Z,437.60
2018-09-09T21:28:04.520Z,522.43
2018-09-09T21:30:32.614Z,434.20
2018-09-09T21:33:00.607Z,342.80
2018-09-09T21:35:28.728Z,408.43
2018-09-09T21:37:56.768Z,356.37
2018-09-09T21:40:24.808Z,350.70
2018-09-09T21:42:52.850Z,373.10
2018-09-09T21:45:20.884Z,347.47
2018-09-09T21:47:48.924Z,413.43
2018-09-09T21:50:16.956Z,396.33
2018-09-09T21:52:44.985Z,480.87
2018-09-09T21:55:13.105Z,415.73
2018-09-09T21:57:41.156Z,340.03
2018-09-09T22:00:10.865Z,335.13
2018-09-09T22:02:41.468Z,277.47
2018-09-09T22:05:09.602Z,218.73
2018-09-09T22:07:37.864Z,221.57
2018-09-09T22:10:05.970Z,434.07
2018-09-09T22:12:34.031Z,652.03
2018-09-09T22:15:02.108Z,885.63
2018-09-09T22:17:30.136Z,725.27
2018-09-09T22:19:58.187Z,697.40
2018-09-09T22:22:26.229Z,754.60
2018-09-09T22:24:54.274Z,576.97
2018-09-09T22:27:22.299Z,581.60
2018-09-09T22:29:50.341Z,869.00
2018-09-09T22:32:18.331Z,922.73
2018-09-09T22:34:46.354Z,808.80
2018-09-09T22:37:14.354Z,743.70
2018-09-09T22:39:42.367Z,724.83
2018-09-09T22:42:10.368Z,573.60
2018-09-09T22:44:38.380Z,640.10
2018-09-09T22:47:06.382Z,605.50
2018-09-09T22:49:34.386Z,508.57
2018-09-09T22:52:02.499Z,480.43
2018-09-09T22:54:30.520Z,340.17
2018-09-09T22:56:58.515Z,366.97
2018-09-09T22:59:26.522Z,619.20
2018-09-09T23:01:54.528Z,506.27
2018-09-09T23:04:22.547Z,737.13
2018-09-09T23:06:50.600Z,744.20
2018-09-09T23:09:18.599Z,749.47
2018-09-09T23:11:46.598Z,705.67
2018-09-09T23:14:14.602Z,744.27
2018-09-09T23:16:42.598Z,671.43
2018-09-09T23:19:10.595Z,647.90
2018-09-09T23:21:38.637Z,607.63
2018-09-09T23:24:06.632Z,619.37
2018-09-09T23:26:34.634Z,640.57
2018-09-09T23:29:02.656Z,570.27
2018-09-09T23:31:30.668Z,546.70
2018-09-09T23:33:58.734Z,710.47
2018-09-09T23:36:26.744Z,694.40
2018-09-09T23:38:54.750Z,703.57
2018-09-09T23:41:22.756Z,753.40
2018-09-09T23:43:50.752Z,882.53
2018-09-09T23:46:18.764Z,954.17
2018-09-09T23:48:46.767Z,819.70
2018-09-09T23:51:14.774Z,1028.37
2018-09-09T23:53:42.779Z,1112.97
2018-09-09T23:56:10.793Z,1009.40
2018-09-09T23:58:38.794Z,1320.70
